createdAt,value
2022-08-03T00:00:24.134Z,18.22
2022-08-03T00:02:50.758Z,18.17
2022-08-03T00:05:17.707Z,18.13
2022-08-03T00:07:44.239Z,18.08
2022-08-03T00:10:13.488Z,18.05
2022-08-03T00:12:39.999Z,18.02
2022-08-03T00:15:08.326Z,18.01
2022-08-03T00:17:53.099Z,17.97
2022-08-03T00:20:21.955Z,17.93
2022-08-03T00:22:49.961Z,17.93
2022-08-03T00:25:16.837Z,17.91
2022-08-03T00:27:43.683Z,17.89
2022-08-03T00:30:10.693Z,17.86
2022-08-03T00:32:37.150Z,17.83
2022-08-03T00:35:09.215Z,17.82
2022-08-03T00:37:40.838Z,17.80
2022-08-03T00:40:13.827Z,17.79
2022-08-03T00:42:50.757Z,17.74
2022-08-03T00:45:18.572Z,17.71
2022-08-03T00:47:45.997Z,17.68
2022-08-03T00:50:13.296Z,17.67
2022-08-03T00:52:40.420Z,17.63
2022-08-03T00:55:08.002Z,17.60
2022-08-03T00:57:34.522Z,17.56
2022-08-03T01:00:01.197Z,17.53
2022-08-03T01:02:29.251Z,17.50
2022-08-03T01:04:56.452Z,17.44
2022-08-03T01:08:00.343Z,17.40
2022-08-03T01:10:54.572Z,17.40
2022-08-03T01:14:20.177Z,17.38
2022-08-03T01:16:59.808Z,17.39
2022-08-03T01:20:02.136Z,17.37
2022-08-03T01:23:10.573Z,17.29
2022-08-03T01:26:05.967Z,17.25
2022-08-03T01:28:50.758Z,17.22
2022-08-03T01:31:23.897Z,17.23
2022-08-03T01:33:58.751Z,17.21
2022-08-03T01:36:33.828Z,17.14
2022-08-03T01:39:01.849Z,17.11
2022-08-03T01:41:44.611Z,17.10
2022-08-03T01:44:30.029Z,17.07
2022-08-03T01:47:01.315Z,17.08
2022-08-03T01:49:32.409Z,17.08
2022-08-03T01:52:04.947Z,17.10
2022-08-03T01:54:40.648Z,17.08
2022-08-03T01:57:09.489Z,17.04
2022-08-03T01:59:37.402Z,17.05
2022-08-03T02:02:31.886Z,17.03
2022-08-03T02:04:54.268Z,16.95
2022-08-03T02:07:21.170Z,16.87
2022-08-03T02:09:52.474Z,16.80
2022-08-03T02:12:20.663Z,16.81
2022-08-03T02:14:49.353Z,16.80
2022-08-03T02:17:16.530Z,16.80
2022-08-03T02:19:43.765Z,16.76
2022-08-03T02:22:12.921Z,16.72
2022-08-03T02:24:40.031Z,16.72
2022-08-03T02:27:18.751Z,16.71
2022-08-03T02:29:48.756Z,16.65
2022-08-03T02:32:20.364Z,16.64
2022-08-03T02:34:51.567Z,16.59
2022-08-03T02:37:20.109Z,16.57
2022-08-03T02:39:48.851Z,16.58
2022-08-03T02:42:18.955Z,16.57
2022-08-03T02:44:49.882Z,16.55
2022-08-03T02:47:20.946Z,16.51
2022-08-03T02:49:52.154Z,16.48
2022-08-03T02:52:23.054Z,16.43
2022-08-03T02:54:53.225Z,16.40
2022-08-03T02:57:21.621Z,16.40
2022-08-03T02:59:49.679Z,16.36
2022-08-03T03:02:18.290Z,16.34
2022-08-03T03:05:52.134Z,16.33
2022-08-03T03:07:39.799Z,16.31
2022-08-03T03:10:18.117Z,16.25
2022-08-03T03:12:46.570Z,16.17
2022-08-03T03:15:13.121Z,16.15
2022-08-03T03:17:41.042Z,16.13
2022-08-03T03:20:08.892Z,16.15
2022-08-03T03:22:36.908Z,16.12
2022-08-03T03:25:05.583Z,16.12
2022-08-03T03:27:34.001Z,16.15
2022-08-03T03:30:00.747Z,16.16
2022-08-03T03:32:28.923Z,16.15
2022-08-03T03:34:56.979Z,16.15
2022-08-03T03:37:23.595Z,16.15
2022-08-03T03:39:50.113Z,16.15
2022-08-03T03:42:17.101Z,16.14
2022-08-03T03:44:43.901Z,16.13
2022-08-03T03:47:10.628Z,16.13
2022-08-03T03:49:40.383Z,16.13
2022-08-03T03:52:07.207Z,16.15
2022-08-03T03:54:44.451Z,16.14
2022-08-03T03:57:13.751Z,16.10
2022-08-03T03:59:44.427Z,16.08
2022-08-03T04:02:12.037Z,16.09
2022-08-03T04:04:57.997Z,16.06
2022-08-03T04:07:45.389Z,16.01
2022-08-03T04:10:42.192Z,16.04
2022-08-03T04:13:10.707Z,16.01
2022-08-03T04:15:39.702Z,15.99
2022-08-03T04:18:08.530Z,15.98
2022-08-03T04:20:39.153Z,16.01
2022-08-03T04:23:13.568Z,16.01
2022-08-03T04:25:43.975Z,16.01
2022-08-03T04:28:29.655Z,16.03
2022-08-03T04:30:59.743Z,16.05
2022-08-03T04:33:30.339Z,16.06
2022-08-03T04:36:01.801Z,16.11
2022-08-03T04:38:37.078Z,16.15
2022-08-03T04:41:04.216Z,16.18
2022-08-03T04:43:33.303Z,16.21
2022-08-03T04:46:01.381Z,16.24
2022-08-03T04:48:28.603Z,16.25
2022-08-03T04:50:55.363Z,16.29
2022-08-03T04:53:22.422Z,16.37
2022-08-03T04:55:49.805Z,16.37
2022-08-03T04:58:16.369Z,16.40
2022-08-03T05:00:43.153Z,16.44
2022-08-03T05:03:19.585Z,16.49
2022-08-03T05:05:52.462Z,16.52
2022-08-03T05:08:27.701Z,16.58
2022-08-03T05:10:55.408Z,16.58
2022-08-03T05:13:25.795Z,16.66
2022-08-03T05:15:52.532Z,16.75
2022-08-03T05:18:19.251Z,16.85
2022-08-03T05:20:45.754Z,17.00
2022-08-03T05:23:12.530Z,17.95
2022-08-03T05:25:39.393Z,20.13
2022-08-03T05:28:06.048Z,23.74
2022-08-03T05:30:33.984Z,26.30
2022-08-03T05:33:01.304Z,28.26
2022-08-03T05:36:02.728Z,28.93
2022-08-03T05:38:28.782Z,29.22
2022-08-03T05:41:20.578Z,29.25
2022-08-03T05:43:46.330Z,29.06
2022-08-03T05:46:13.383Z,28.56
2022-08-03T05:48:40.361Z,27.74
2022-08-03T05:51:10.968Z,27.11
2022-08-03T05:53:37.778Z,26.85
2022-08-03T05:56:15.130Z,26.60
2022-08-03T05:58:47.449Z,26.61
2022-08-03T06:01:16.012Z,26.76
2022-08-03T06:03:42.778Z,25.67
2022-08-03T06:06:11.460Z,24.69
2022-08-03T06:08:38.272Z,24.56
2022-08-03T06:11:05.026Z,23.87
2022-08-03T06:13:32.154Z,23.26
2022-08-03T06:15:58.670Z,22.93
2022-08-03T06:18:25.425Z,22.13
2022-08-03T06:20:52.610Z,21.78
2022-08-03T06:23:19.946Z,21.41
2022-08-03T06:25:47.079Z,21.23
2022-08-03T06:28:42.664Z,21.31
2022-08-03T06:31:01.843Z,21.50
2022-08-03T06:34:31.092Z,21.66
2022-08-03T06:36:15.349Z,21.80
2022-08-03T06:38:41.973Z,21.90
2022-08-03T06:41:10.283Z,22.04
2022-08-03T06:43:37.754Z,22.14
2022-08-03T06:46:05.553Z,22.23
2022-08-03T06:48:32.450Z,22.34
2022-08-03T06:50:59.283Z,22.42
2022-08-03T06:53:25.772Z,22.47
2022-08-03T06:55:55.047Z,22.61
2022-08-03T06:58:22.439Z,22.65
2022-08-03T07:00:49.179Z,22.82
2022-08-03T07:03:15.914Z,22.95
2022-08-03T07:05:43.687Z,23.05
2022-08-03T07:08:10.429Z,23.09
2022-08-03T07:10:37.270Z,23.17
2022-08-03T07:13:05.188Z,23.41
2022-08-03T07:15:55.356Z,23.60
2022-08-03T07:18:28.352Z,23.84
2022-08-03T07:20:57.844Z,24.06
2022-08-03T07:23:25.400Z,24.15
2022-08-03T07:25:51.977Z,24.32
2022-08-03T07:28:18.645Z,24.49
2022-08-03T07:30:45.200Z,24.68
2022-08-03T07:33:11.995Z,24.82
2022-08-03T07:35:39.032Z,24.99
2022-08-03T07:38:05.594Z,25.20
2022-08-03T07:40:32.533Z,25.40
2022-08-03T07:43:00.095Z,25.45
2022-08-03T07:45:26.855Z,25.52
2022-08-03T07:47:54.351Z,25.61
2022-08-03T07:50:21.637Z,25.77
2022-08-03T07:52:50.642Z,25.90
2022-08-03T07:55:22.988Z,25.96
2022-08-03T07:58:17.218Z,26.08
2022-08-03T08:00:46.033Z,26.12
2022-08-03T08:03:13.254Z,26.18
2022-08-03T08:05:39.897Z,26.19
2022-08-03T08:08:07.034Z,26.23
2022-08-03T08:10:33.843Z,26.35
2022-08-03T08:13:00.576Z,26.48
2022-08-03T08:15:27.670Z,26.64
2022-08-03T08:17:56.411Z,26.59
2022-08-03T08:20:30.577Z,26.61
2022-08-03T08:23:01.352Z,26.58
2022-08-03T08:25:30.202Z,26.69
2022-08-03T08:28:30.124Z,26.75
2022-08-03T08:30:44.742Z,26.81
2022-08-03T08:33:22.483Z,26.87
2022-08-03T08:35:49.338Z,26.92
2022-08-03T08:38:15.887Z,26.96
2022-08-03T08:40:42.769Z,27.20
2022-08-03T08:43:09.261Z,27.20
2022-08-03T08:45:36.472Z,27.20
2022-08-03T08:48:08.076Z,27.28
2022-08-03T09:30:59.427Z,28.58
2022-08-03T09:33:26.084Z,28.84
2022-08-03T09:36:02.879Z,29.03
2022-08-03T09:38:29.323Z,29.29
2022-08-03T09:41:00.304Z,29.30
2022-08-03T09:43:28.512Z,29.53
2022-08-03T09:46:07.236Z,29.73
2022-08-03T09:48:35.416Z,29.67
2022-08-03T09:51:13.293Z,29.83
2022-08-03T09:53:57.012Z,30.06
2022-08-03T09:56:40.462Z,30.18
2022-08-03T09:59:07.022Z,30.09
2022-08-03T10:01:35.333Z,30.12
2022-08-03T10:04:04.031Z,30.30
2022-08-03T10:06:31.490Z,30.41
2022-08-03T10:09:10.972Z,30.71
2022-08-03T10:11:42.000Z,30.71
2022-08-03T10:14:19.458Z,30.66
2022-08-03T10:16:47.541Z,30.41
2022-08-03T10:19:15.547Z,30.54
2022-08-03T10:22:05.166Z,30.54
2022-08-03T10:24:35.367Z,30.73
2022-08-03T10:27:05.583Z,30.84
2022-08-03T10:29:38.480Z,30.92
2022-08-03T10:32:14.615Z,30.99
2022-08-03T10:34:44.626Z,31.15
2022-08-03T10:37:14.678Z,31.29
2022-08-03T10:39:53.548Z,31.41
2022-08-03T10:42:25.155Z,31.38
2022-08-03T10:45:03.577Z,31.40
2022-08-03T10:47:31.659Z,31.58
2022-08-03T10:49:59.940Z,31.66
2022-08-03T10:52:32.621Z,31.71
2022-08-03T10:55:21.393Z,31.98
2022-08-03T10:57:58.285Z,32.12
2022-08-03T11:00:27.478Z,32.27
2022-08-03T11:03:14.034Z,32.30
2022-08-03T11:05:46.264Z,32.44
2022-08-03T11:08:34.808Z,32.44
2022-08-03T11:11:28.377Z,32.29
2022-08-03T11:14:04.599Z,32.23
2022-08-03T11:16:42.854Z,32.40
2022-08-03T11:19:10.957Z,32.62
2022-08-03T11:21:50.089Z,32.62
2022-08-03T11:24:42.425Z,32.75
2022-08-03T11:27:15.238Z,32.48
2022-08-03T11:30:08.165Z,32.43
2022-08-03T11:32:38.256Z,32.57
2022-08-03T11:35:08.225Z,32.57
2022-08-03T11:37:35.921Z,32.44
2022-08-03T11:40:03.846Z,32.42
2022-08-03T11:42:33.278Z,32.78
2022-08-03T11:45:01.045Z,32.81
2022-08-03T11:47:30.085Z,32.97
2022-08-03T11:50:02.104Z,33.15
2022-08-03T11:52:35.674Z,33.20
2022-08-03T11:55:02.684Z,33.38
2022-08-03T11:59:11.018Z,33.40
2022-08-03T12:00:26.206Z,33.36
2022-08-03T12:03:04.126Z,33.32
2022-08-03T12:05:52.275Z,33.51
2022-08-03T12:08:28.193Z,33.77
2022-08-03T12:10:56.978Z,33.74
2022-08-03T12:14:35.822Z,33.89
2022-08-03T12:16:18.370Z,33.99
2022-08-03T12:18:45.157Z,34.09
2022-08-03T12:21:12.422Z,34.00
2022-08-03T12:23:39.601Z,33.98
2022-08-03T12:26:10.243Z,33.96
2022-08-03T12:28:38.894Z,33.86
2022-08-03T12:31:09.196Z,34.06
2022-08-03T12:33:58.858Z,34.08
2022-08-03T12:36:26.662Z,34.06
2022-08-03T12:38:59.385Z,34.06
2022-08-03T12:41:44.073Z,34.11
2022-08-03T12:44:10.527Z,33.80
2022-08-03T12:46:43.991Z,33.90
2022-08-03T12:49:17.359Z,33.90
2022-08-03T12:51:43.987Z,34.11
2022-08-03T12:54:17.736Z,34.12
2022-08-03T12:57:08.303Z,34.43
2022-08-03T12:59:40.373Z,34.65
2022-08-03T13:02:24.467Z,34.30
2022-08-03T13:04:53.597Z,34.51
2022-08-03T13:07:21.453Z,34.60
2022-08-03T13:09:49.291Z,34.65
2022-08-03T13:12:22.776Z,33.94
2022-08-03T13:14:51.940Z,33.72
2022-08-03T13:17:19.267Z,33.95
2022-08-03T13:19:47.239Z,33.84
2022-08-03T13:22:15.244Z,33.91
2022-08-03T13:24:43.356Z,34.00
2022-08-03T13:28:45.973Z,34.48
2022-08-03T13:31:12.643Z,34.74
2022-08-03T13:33:40.385Z,34.82
2022-08-03T13:36:07.160Z,34.95
2022-08-03T13:38:33.787Z,34.81
2022-08-03T13:41:01.911Z,34.97
2022-08-03T13:43:31.621Z,35.13
2022-08-03T13:45:58.424Z,35.05
2022-08-03T13:48:36.873Z,35.11
2022-08-03T13:51:21.758Z,35.26
2022-08-03T13:53:50.876Z,35.44
2022-08-03T13:56:17.596Z,35.61
2022-08-03T13:58:44.046Z,35.47
2022-08-03T14:01:11.213Z,35.09
2022-08-03T14:03:37.945Z,34.78
2022-08-03T14:06:05.580Z,34.49
2022-08-03T14:08:32.054Z,34.44
2022-08-03T14:10:58.731Z,34.51
2022-08-03T14:13:26.084Z,34.63
2022-08-03T14:15:52.706Z,34.81
2022-08-03T14:18:29.136Z,34.58
2022-08-03T14:21:06.296Z,34.77
2022-08-03T14:23:35.265Z,34.41
2022-08-03T14:26:01.820Z,34.12
2022-08-03T14:28:28.634Z,33.92
2022-08-03T14:30:55.983Z,33.85
2022-08-03T14:33:23.131Z,33.92
2022-08-03T14:35:50.130Z,34.17
2022-08-03T14:38:17.026Z,34.37
2022-08-03T14:40:43.839Z,34.00
2022-08-03T14:43:10.310Z,33.67
2022-08-03T14:45:36.931Z,33.86
2022-08-03T14:50:31.791Z,33.94
2022-08-03T14:50:52.606Z,33.90
2022-08-03T14:53:19.975Z,33.79
2022-08-03T14:55:50.889Z,33.59
2022-08-03T14:58:21.174Z,33.69
2022-08-03T15:00:49.464Z,34.01
2022-08-03T15:03:20.156Z,34.18
2022-08-03T15:05:46.803Z,34.34
2022-08-03T15:08:13.430Z,34.06
2022-08-03T15:10:44.154Z,33.83
2022-08-03T15:13:15.010Z,33.75
2022-08-03T15:15:41.931Z,33.66
2022-08-03T15:18:08.692Z,33.66
2022-08-03T15:20:50.786Z,33.88
2022-08-03T15:23:18.719Z,34.10
2022-08-03T15:26:31.582Z,34.12
2022-08-03T15:28:33.282Z,33.91
2022-08-03T15:31:00.422Z,33.76
2022-08-03T15:33:27.645Z,33.46
2022-08-03T15:35:54.138Z,33.07
2022-08-03T15:38:26.037Z,32.77
2022-08-03T15:40:56.007Z,32.48
2022-08-03T15:43:23.534Z,32.20
2022-08-03T15:46:12.844Z,32.09
2022-08-03T15:48:36.569Z,32.41
2022-08-03T15:51:04.585Z,32.59
2022-08-03T15:53:31.053Z,33.02
2022-08-03T15:55:57.662Z,33.43
2022-08-03T15:59:03.691Z,33.54
2022-08-03T16:01:15.334Z,33.69
2022-08-03T16:03:45.678Z,33.73
2022-08-03T16:06:13.548Z,33.69
2022-08-03T16:08:40.093Z,34.00
2022-08-03T16:11:06.670Z,34.08
2022-08-03T16:14:12.964Z,34.18
2022-08-03T16:16:19.680Z,34.22
2022-08-03T16:18:46.192Z,34.15
2022-08-03T16:21:15.582Z,33.96
2022-08-03T16:23:47.254Z,33.76
2022-08-03T16:26:15.159Z,33.52
2022-08-03T16:28:41.830Z,33.62
2022-08-03T16:31:09.165Z,33.68
2022-08-03T16:33:36.026Z,33.49
2022-08-03T16:36:03.004Z,33.23
2022-08-03T16:38:30.479Z,32.98
2022-08-03T16:40:57.225Z,32.71
2022-08-03T16:43:24.601Z,32.63
2022-08-03T16:45:52.989Z,32.82
2022-08-03T16:48:19.941Z,32.90
2022-08-03T16:50:47.313Z,32.69
2022-08-03T16:53:16.634Z,32.51
2022-08-03T16:55:53.694Z,32.39
2022-08-03T16:58:34.206Z,32.39
2022-08-03T17:01:01.510Z,32.23
2022-08-03T17:03:57.383Z,32.10
2022-08-03T17:06:26.701Z,31.87
2022-08-03T17:09:03.240Z,31.71
2022-08-03T17:11:33.016Z,31.67
2022-08-03T17:13:59.985Z,31.74
2022-08-03T17:16:27.038Z,31.87
2022-08-03T17:19:03.846Z,32.03
2022-08-03T17:21:33.169Z,32.15
2022-08-03T17:24:27.684Z,32.35
2022-08-03T17:26:55.461Z,32.36
2022-08-03T17:29:24.994Z,32.42
2022-08-03T17:31:52.985Z,32.43
2022-08-03T17:34:20.825Z,32.38
2022-08-03T17:37:27.200Z,32.22
2022-08-03T17:39:59.879Z,32.02
2022-08-03T17:42:39.100Z,31.96
2022-08-03T17:45:07.360Z,31.92
2022-08-03T17:47:42.370Z,31.89
2022-08-03T17:50:24.440Z,31.74
2022-08-03T17:53:07.581Z,31.71
2022-08-03T17:55:56.628Z,31.71
2022-08-03T17:58:55.113Z,31.56
2022-08-03T18:02:01.793Z,31.49
2022-08-03T18:04:42.333Z,31.37
2022-08-03T18:07:12.511Z,31.35
2022-08-03T18:10:06.658Z,31.21
2022-08-03T18:12:40.321Z,31.01
2022-08-03T18:15:10.165Z,30.78
2022-08-03T18:17:58.124Z,30.60
2022-08-03T18:20:40.421Z,30.51
2022-08-03T18:23:10.457Z,30.42
2022-08-03T18:25:45.239Z,30.22
2022-08-03T18:28:18.677Z,30.07
2022-08-03T18:30:54.728Z,29.91
2022-08-03T18:34:16.801Z,29.67
2022-08-03T18:36:21.573Z,29.41
2022-08-03T18:38:51.757Z,29.16
2022-08-03T18:41:33.370Z,28.85
2022-08-03T18:44:07.862Z,28.59
2022-08-03T18:47:07.073Z,28.32
2022-08-03T18:49:37.012Z,28.15
2022-08-03T18:52:12.214Z,28.02
2022-08-03T18:55:00.987Z,27.80
2022-08-03T18:57:46.411Z,27.65
2022-08-03T19:00:16.283Z,27.55
2022-08-03T19:03:12.489Z,27.45
2022-08-03T19:06:06.366Z,27.25
2022-08-03T19:08:48.027Z,26.94
2022-08-03T19:11:28.274Z,26.63
2022-08-03T19:13:59.301Z,26.50
2022-08-03T19:16:38.750Z,26.38
2022-08-03T19:19:10.898Z,26.29
2022-08-03T19:21:41.214Z,26.20
2022-08-03T19:24:10.459Z,26.15
2022-08-03T19:26:39.540Z,25.96
2022-08-03T19:29:10.797Z,25.83
2022-08-03T19:31:58.956Z,25.70
2022-08-03T19:34:29.607Z,25.56
2022-08-03T19:36:59.444Z,25.43
2022-08-03T19:39:26.886Z,25.37
2022-08-03T19:41:58.197Z,25.29
2022-08-03T19:44:37.748Z,25.16
2022-08-03T19:47:16.926Z,25.02
2022-08-03T19:50:04.858Z,24.93
2022-08-03T19:52:35.674Z,24.75
2022-08-03T19:55:09.315Z,24.73
2022-08-03T19:57:42.218Z,24.68
2022-08-03T20:00:12.505Z,24.62
2022-08-03T20:02:41.364Z,24.57
2022-08-03T20:05:12.050Z,24.53
2022-08-03T20:07:47.792Z,24.42
2022-08-03T20:10:16.030Z,24.34
2022-08-03T20:12:44.275Z,24.26
2022-08-03T20:15:11.444Z,24.13
2022-08-03T20:17:54.454Z,24.04
2022-08-03T20:20:27.190Z,23.99
2022-08-03T20:22:57.747Z,23.94
2022-08-03T20:25:38.423Z,23.88
2022-08-03T20:28:26.636Z,23.78
2022-08-03T20:30:54.872Z,23.73
2022-08-03T20:33:27.867Z,23.68
2022-08-03T20:36:07.943Z,23.62
2022-08-03T20:38:43.800Z,23.56
2022-08-03T20:41:14.140Z,23.51
2022-08-03T20:43:41.586Z,23.47
2022-08-03T20:46:29.180Z,23.43
2022-08-03T20:48:57.174Z,23.35
2022-08-03T20:51:50.350Z,23.28
2022-08-03T20:54:29.423Z,23.23
2022-08-03T20:57:03.832Z,23.13
2022-08-03T20:59:46.891Z,22.94
2022-08-03T21:02:19.838Z,22.88
2022-08-03T21:04:58.003Z,22.80
2022-08-03T21:07:45.598Z,22.75
2022-08-03T21:10:15.796Z,22.71
2022-08-03T21:13:15.032Z,22.69
2022-08-03T21:15:59.824Z,22.71
2022-08-03T21:18:36.997Z,22.63
2022-08-03T21:21:06.186Z,22.61
2022-08-03T21:23:45.511Z,22.53
2022-08-03T21:26:20.017Z,22.43
2022-08-03T21:28:49.588Z,22.41
2022-08-03T21:31:24.491Z,22.30
2022-08-03T21:34:05.436Z,22.24
2022-08-03T21:36:36.884Z,22.20
2022-08-03T21:39:08.030Z,22.23
2022-08-03T21:41:35.981Z,22.24
2022-08-03T21:44:02.916Z,22.20
2022-08-03T21:46:40.466Z,22.14
2022-08-03T21:50:04.514Z,22.08
2022-08-03T21:51:59.479Z,22.05
2022-08-03T21:54:34.244Z,22.01
2022-08-03T21:57:04.803Z,22.00
2022-08-03T21:59:37.020Z,21.96
2022-08-03T22:02:04.449Z,21.91
2022-08-03T22:04:50.816Z,21.88
2022-08-03T22:07:22.589Z,21.75
2022-08-03T22:09:51.985Z,21.64
2022-08-03T22:12:24.847Z,21.57
2022-08-03T22:15:01.446Z,21.50
2022-08-03T22:17:55.837Z,21.49
2022-08-03T22:20:21.275Z,21.45
2022-08-03T22:22:56.128Z,21.41
2022-08-03T22:25:30.453Z,21.38
2022-08-03T22:30:24.949Z,21.39
2022-08-03T22:32:53.841Z,21.33
2022-08-03T22:35:21.361Z,21.27
2022-08-03T22:37:53.718Z,21.27
2022-08-03T22:40:20.222Z,21.27
2022-08-03T22:42:49.547Z,21.26
2022-08-03T22:46:07.542Z,21.21
2022-08-03T22:48:07.564Z,21.10
2022-08-03T22:50:34.782Z,21.09
2022-08-03T22:53:01.625Z,21.08
2022-08-03T22:55:28.591Z,21.05
2022-08-03T22:57:56.035Z,20.98
2022-08-03T23:00:23.627Z,20.93
2022-08-03T23:02:51.827Z,20.93
2022-08-03T23:06:00.518Z,20.85
2022-08-03T23:08:14.422Z,20.78
2022-08-03T23:10:46.670Z,20.73
2022-08-03T23:13:16.468Z,20.72
2022-08-03T23:15:50.770Z,20.70
2022-08-03T23:18:21.271Z,20.69
2022-08-03T23:20:52.205Z,20.67
2022-08-03T23:23:19.962Z,20.65
2022-08-03T23:25:50.565Z,20.64
2022-08-03T23:28:17.668Z,20.63
2022-08-03T23:30:44.632Z,20.59
2022-08-03T23:33:15.744Z,20.55
2022-08-03T23:36:29.296Z,20.53
2022-08-03T23:38:43.912Z,20.50
2022-08-03T23:41:10.405Z,20.48
2022-08-03T23:43:52.374Z,20.41
2022-08-03T23:46:25.754Z,20.36
2022-08-03T23:48:56.572Z,20.37
2022-08-03T23:51:44.433Z,20.42
2022-08-03T23:54:23.923Z,20.43
2022-08-03T23:57:38.534Z,20.41
